• Join FlightAware (Why Join?)
  • Login
  • US Flag 
 
07:20AM EST


 

Airport Tracker/Info


-or-


 

Live Flight TrackerFlight Track Log ✈ LYM752 ✈ 01-May-2013 ✈ KDEN - KRIW

Flight Track Log - Related Links

Times and Time Zones

All times are in EDT time to prevent confusion due to time zone crossing. See the LYM752 flight status page for this flight to view local times or setup timezone preferences in your user account.

Time Position Orientation Groundspeed Altitude Reporting Facility
EDT Latitude Longitude Course Direction KTS MPH feet Rate Location/Type
08:55AM 39.9500 -104.7167 320° Northwest 184 212 8,300  Level Denver TRACON
08:56AM 40.0000 -104.7500 333° Northwest 195 224 9,900 840 Climbing Denver TRACON
08:57AM 40.0667 -104.7833 339° North 256 295 10,000 960 Climbing Denver TRACON
08:58AM 40.1167 -104.8000 346° North 231 266 11,900 1,320 Climbing Denver TRACON
09:00AM 40.1958 -104.8342 342° North 243 280 13,000 1,500 Climbing Denver Center
09:01AM 40.2360 -105.0899 320° Northwest  Level Estimated
09:01AM 40.2567 -104.8492 349° North 198 228 15,300  Level Denver Center
09:02AM 40.3072 -104.8642 347° North 185 213 16,700 1,140 Climbing Denver Center
09:03AM 40.3608 -104.8761 350° North 194 223 17,700 900 Climbing Denver Center
09:04AM 40.4128 -104.8972 343° North 196 226 18,600 840 Climbing Denver Center
09:05AM 40.4653 -104.9239 339° North 189 217 19,500 660 Climbing Denver Center
09:06AM 40.5153 -104.9522 337° Northwest 195 224 20,000 180 Climbing Denver Center
09:07AM 40.5761 -104.9861 337° Northwest 228 262 19,900  Descending Denver Center
09:08AM 40.6361 -105.0250 334° Northwest 246 283 20,000 60 Climbing Denver Center
09:09AM 40.7022 -105.0672 334° Northwest 260 299 20,100  Climbing Denver Center
09:10AM 40.7675 -105.1106 333° Northwest 258 297 20,000  Descending Denver Center
09:11AM 40.8331 -105.1617 329° Northwest 269 310 20,100  Climbing Denver Center
09:12AM 40.9000 -105.2094 332° Northwest 270 311 20,100 -60 Level Denver Center
09:13AM 40.9714 -105.2553 334° Northwest 279 321 20,000 -60 Descending Denver Center
09:14AM 41.0431 -105.3025 334° Northwest 283 326 20,000  Level Denver Center
09:15AM 41.1181 -105.3589 330° Northwest 280 322 20,000  Level Denver Center
09:16AM 41.1831 -105.4056 332° Northwest 279 321 20,000  Level Denver Center
09:17AM 41.2450 -105.4556 329° Northwest 273 314 20,000  Level Denver Center
09:18AM 41.3131 -105.5192 325° Northwest 268 308 20,000  Level Denver Center
09:19AM 41.3717 -105.5764 324° Northwest 270 311 20,000 -60 Level Denver Center
09:20AM 41.4308 -105.6344 324° Northwest 274 315 19,900  Descending Denver Center
09:21AM 41.4986 -105.7061 322° Northwest 278 320 20,100  Climbing Denver Center
09:22AM 41.5631 -105.7600 328° Northwest 284 327 20,000 -60 Descending Denver Center
09:23AM 41.6292 -105.8181 327° Northwest 294 338 20,000 -60 Level Denver Center
09:24AM 41.7083 -105.8864 327° Northwest 300 345 19,900  Descending Denver Center
09:25AM 41.7756 -105.9442 327° Northwest 300 345 20,100 60 Climbing Denver Center
09:26AM 41.8411 -106.0008 327° Northwest 296 341 20,100 -60 Level Denver Center
09:27AM 41.8931 -106.0967 306° West 286 329 20,000  Descending Denver Center
09:28AM 41.9333 -106.1786 303° West 278 320 20,100  Climbing Denver Center
09:29AM 41.9783 -106.2603 307° West 282 325 20,100  Level Denver Center
09:30AM 42.0303 -106.3528 307° West 279 321 20,100  Level Denver Center
09:31AM 42.0714 -106.4336 304° West 277 319 20,100 -60 Level Denver Center
09:32AM 42.1217 -106.5250 307° West 279 321 20,000 -60 Descending Denver Center
09:33AM 42.1617 -106.6047 304° West 272 313 20,000  Level Denver Center
09:34AM 42.2033 -106.6828 306° West 269 310 20,000 -60 Level Denver Center
09:35AM 42.2492 -106.7761 304° West 269 310 19,900  Descending Denver Center
09:36AM 42.2922 -106.8536 307° West 269 310 20,100  Climbing Denver Center
09:37AM 42.3447 -106.9431 308° West 273 314 20,000 -60 Descending Denver Center
09:38AM 42.3872 -107.0233 306° West 274 315 20,000  Level Denver Center
09:39AM 42.4247 -107.1089 301° West 277 319 20,000 -60 Level Denver Center
09:40AM 42.4669 -107.2106 299° West 277 319 19,900  Descending Denver Center
09:41AM 42.5028 -107.2986 299° West 279 321 20,000 -420 Climbing Denver Center
09:42AM 42.5481 -107.4047 300° West 291 335 19,100 -960 Descending Salt Lake Center
09:43AM 42.5969 -107.4939 307° West 304 350 18,100 -780 Descending Salt Lake Center
09:44AM 42.6506 -107.5822 310° West 315 362 17,600 -840 Descending Salt Lake Center
09:45AM 42.7117 -107.6789 311° West 308 354 16,400 -1,140 Descending Salt Lake Center
09:46AM 42.7614 -107.7597 310° West 294 338 15,300 -1,560 Descending Salt Lake Center
09:47AM 42.8200 -107.8533 311° West 292 336 13,300 -1,620 Descending Salt Lake Center
09:48AM 42.8703 -107.9350 310° West 293 337 12,100 -1,080 Descending Salt Lake Center
09:50AM 42.9194 -108.0181 309° West 295 339 11,200 -600 Descending Salt Lake Center
09:51AM 42.9469 -108.1114 292° West 255 293 10,900 -780 Descending Salt Lake Center
09:52AM 42.9692 -108.1756 295° West 221 254 9,700 -1,080 Descending Salt Lake Center
09:53AM 42.9908 -108.2467 293° West 201 231 8,800 -660 Descending Salt Lake Center
09:54AM 43.0097 -108.3097 292° West 194 223 8,400 -420 Descending Salt Lake Center
09:56AM 43.0500 -108.4500 304° West  Level FlightAware Approximate
10:03AM 43.0643 -108.4598 304° West  Level Estimated